sensor_id;sensor_type;location;lat;lon;timestamp;temperature;humidity
15217;DHT22;7711;46.634;14.318;2023-03-24T00:00:28;7.60;99.90
15217;DHT22;7711;46.634;14.318;2023-03-24T00:02:56;7.50;99.90
15217;DHT22;7711;46.634;14.318;2023-03-24T00:05:25;7.60;99.90
15217;DHT22;7711;46.634;14.318;2023-03-24T00:07:55;7.50;99.90
15217;DHT22;7711;46.634;14.318;2023-03-24T00:10:24;7.40;99.90
15217;DHT22;7711;46.634;14.318;2023-03-24T00:12:55;7.50;99.90
15217;DHT22;7711;46.634;14.318;2023-03-24T00:15:24;7.40;99.90
15217;DHT22;7711;46.634;14.318;2023-03-24T00:17:51;7.30;99.90
15217;DHT22;7711;46.634;14.318;2023-03-24T00:20:22;7.30;99.90
15217;DHT22;7711;46.634;14.318;2023-03-24T00:22:52;7.20;99.90
15217;DHT22;7711;46.634;14.318;2023-03-24T00:25:22;7.20;99.90
15217;DHT22;7711;46.634;14.318;2023-03-24T00:27:52;7.20;99.90
15217;DHT22;7711;46.634;14.318;2023-03-24T00:30:19;7.20;99.90
15217;DHT22;7711;46.634;14.318;2023-03-24T00:32:47;7.20;99.90
15217;DHT22;7711;46.634;14.318;2023-03-24T00:35:15;7.10;99.90
15217;DHT22;7711;46.634;14.318;2023-03-24T00:37:45;7.00;99.90
15217;DHT22;7711;46.634;14.318;2023-03-24T00:40:13;7.00;99.90
15217;DHT22;7711;46.634;14.318;2023-03-24T00:42:41;7.00;99.90
15217;DHT22;7711;46.634;14.318;2023-03-24T00:45:12;7.10;99.90
15217;DHT22;7711;46.634;14.318;2023-03-24T00:47:39;7.10;99.90
15217;DHT22;7711;46.634;14.318;2023-03-24T00:50:12;7.00;99.90
15217;DHT22;7711;46.634;14.318;2023-03-24T00:52:40;7.00;99.90
15217;DHT22;7711;46.634;14.318;2023-03-24T00:55:11;6.90;99.90
15217;DHT22;7711;46.634;14.318;2023-03-24T00:57:40;6.90;99.90
15217;DHT22;7711;46.634;14.318;2023-03-24T01:00:15;6.80;99.90
15217;DHT22;7711;46.634;14.318;2023-03-24T01:02:45;6.90;99.90
15217;DHT22;7711;46.634;14.318;2023-03-24T01:05:12;6.90;99.90
15217;DHT22;7711;46.634;14.318;2023-03-24T01:07:42;6.80;99.90
15217;DHT22;7711;46.634;14.318;2023-03-24T01:10:13;6.90;99.90
15217;DHT22;7711;46.634;14.318;2023-03-24T01:12:40;6.80;99.90
15217;DHT22;7711;46.634;14.318;2023-03-24T01:15:10;6.80;99.90
15217;DHT22;7711;46.634;14.318;2023-03-24T01:17:39;6.70;99.90
15217;DHT22;7711;46.634;14.318;2023-03-24T01:20:08;6.70;99.90
15217;DHT22;7711;46.634;14.318;2023-03-24T01:22:37;6.70;99.90
15217;DHT22;7711;46.634;14.318;2023-03-24T01:25:05;6.80;99.90
15217;DHT22;7711;46.634;14.318;2023-03-24T01:27:35;6.80;99.90
15217;DHT22;7711;46.634;14.318;2023-03-24T01:30:04;6.70;99.90
15217;DHT22;7711;46.634;14.318;2023-03-24T01:32:31;6.70;99.90
15217;DHT22;7711;46.634;14.318;2023-03-24T01:34:58;6.80;99.90
15217;DHT22;7711;46.634;14.318;2023-03-24T01:37:25;6.70;99.90
15217;DHT22;7711;46.634;14.318;2023-03-24T01:39:52;6.70;99.90
15217;DHT22;7711;46.634;14.318;2023-03-24T01:42:21;6.80;99.90
15217;DHT22;7711;46.634;14.318;2023-03-24T01:44:53;6.80;99.90
15217;DHT22;7711;46.634;14.318;2023-03-24T01:47:20;6.70;99.90
15217;DHT22;7711;46.634;14.318;2023-03-24T01:49:50;6.80;99.90
15217;DHT22;7711;46.634;14.318;2023-03-24T01:52:21;6.70;99.90
15217;DHT22;7711;46.634;14.318;2023-03-24T01:54:52;6.80;99.90
15217;DHT22;7711;46.634;14.318;2023-03-24T01:57:23;6.80;99.90
15217;DHT22;7711;46.634;14.318;2023-03-24T01:59:54;6.90;99.90
15217;DHT22;7711;46.634;14.318;2023-03-24T02:02:23;6.90;99.90
15217;DHT22;7711;46.634;14.318;2023-03-24T02:04:53;6.90;99.90
15217;DHT22;7711;46.634;14.318;2023-03-24T02:07:28;6.80;99.90
15217;DHT22;7711;46.634;14.318;2023-03-24T02:09:58;6.80;99.90
15217;DHT22;7711;46.634;14.318;2023-03-24T02:12:25;6.80;99.90
15217;DHT22;7711;46.634;14.318;2023-03-24T02:14:54;6.80;99.90
15217;DHT22;7711;46.634;14.318;2023-03-24T02:17:42;6.80;99.90
15217;DHT22;7711;46.634;14.318;2023-03-24T02:20:36;6.90;99.90
15217;DHT22;7711;46.634;14.318;2023-03-24T02:32:25;6.90;99.90
15217;DHT22;7711;46.634;14.318;2023-03-24T02:35:38;7.00;99.90
15217;DHT22;7711;46.634;14.318;2023-03-24T02:41:16;7.00;99.90
15217;DHT22;7711;46.634;14.318;2023-03-24T02:43:50;6.90;99.90
15217;DHT22;7711;46.634;14.318;2023-03-24T02:46:22;6.80;99.90
15217;DHT22;7711;46.634;14.318;2023-03-24T02:49:09;6.90;99.90
15217;DHT22;7711;46.634;14.318;2023-03-24T02:51:48;6.90;99.90
15217;DHT22;7711;46.634;14.318;2023-03-24T02:54:20;6.80;99.90
15217;DHT22;7711;46.634;14.318;2023-03-24T02:56:53;6.90;99.90
15217;DHT22;7711;46.634;14.318;2023-03-24T02:59:28;6.80;99.90
15217;DHT22;7711;46.634;14.318;2023-03-24T03:02:00;6.80;99.90
15217;DHT22;7711;46.634;14.318;2023-03-24T03:04:31;6.70;99.90
15217;DHT22;7711;46.634;14.318;2023-03-24T03:07:02;6.70;99.90
15217;DHT22;7711;46.634;14.318;2023-03-24T03:09:32;6.70;99.90
15217;DHT22;7711;46.634;14.318;2023-03-24T03:12:04;6.70;99.90
15217;DHT22;7711;46.634;14.318;2023-03-24T03:14:36;6.70;99.90
15217;DHT22;7711;46.634;14.318;2023-03-24T03:17:08;6.70;99.90
15217;DHT22;7711;46.634;14.318;2023-03-24T03:19:40;6.70;99.90
15217;DHT22;7711;46.634;14.318;2023-03-24T03:22:12;6.70;99.90
15217;DHT22;7711;46.634;14.318;2023-03-24T03:24:42;6.70;99.90
15217;DHT22;7711;46.634;14.318;2023-03-24T03:27:16;6.70;99.90
15217;DHT22;7711;46.634;14.318;2023-03-24T03:29:48;6.70;99.90
15217;DHT22;7711;46.634;14.318;2023-03-24T03:32:19;6.80;99.90
15217;DHT22;7711;46.634;14.318;2023-03-24T03:34:53;6.70;99.90
15217;DHT22;7711;46.634;14.318;2023-03-24T03:37:26;6.70;99.90
15217;DHT22;7711;46.634;14.318;2023-03-24T03:39:58;6.70;99.90
15217;DHT22;7711;46.634;14.318;2023-03-24T03:42:28;6.70;99.90
15217;DHT22;7711;46.634;14.318;2023-03-24T03:44:55;6.70;99.90
15217;DHT22;7711;46.634;14.318;2023-03-24T03:47:22;6.70;99.90
15217;DHT22;7711;46.634;14.318;2023-03-24T03:49:49;6.80;99.90
15217;DHT22;7711;46.634;14.318;2023-03-24T03:52:17;6.70;99.90
15217;DHT22;7711;46.634;14.318;2023-03-24T03:54:44;6.70;99.90
15217;DHT22;7711;46.634;14.318;2023-03-24T03:57:12;6.70;99.90
15217;DHT22;7711;46.634;14.318;2023-03-24T03:59:41;6.70;99.90
15217;DHT22;7711;46.634;14.318;2023-03-24T04:02:21;6.60;99.90
15217;DHT22;7711;46.634;14.318;2023-03-24T04:08:13;6.50;99.90
15217;DHT22;7711;46.634;14.318;2023-03-24T04:11:05;6.50;99.90
15217;DHT22;7711;46.634;14.318;2023-03-24T04:13:41;6.50;99.90
15217;DHT22;7711;46.634;14.318;2023-03-24T04:16:16;6.50;99.90
15217;DHT22;7711;46.634;14.318;2023-03-24T04:18:57;6.60;99.90
15217;DHT22;7711;46.634;14.318;2023-03-24T04:21:44;6.50;99.90
15217;DHT22;7711;46.634;14.318;2023-03-24T04:24:21;6.50;99.90
15217;DHT22;7711;46.634;14.318;2023-03-24T04:26:54;6.50;99.90
15217;DHT22;7711;46.634;14.318;2023-03-24T04:29:29;6.50;99.90
15217;DHT22;7711;46.634;14.318;2023-03-24T04:32:02;6.50;99.90
15217;DHT22;7711;46.634;14.318;2023-03-24T04:34:33;6.50;99.90
15217;DHT22;7711;46.634;14.318;2023-03-24T04:37:04;6.50;99.90
15217;DHT22;7711;46.634;14.318;2023-03-24T04:39:35;6.60;99.90
15217;DHT22;7711;46.634;14.318;2023-03-24T04:42:07;6.60;99.90
15217;DHT22;7711;46.634;14.318;2023-03-24T04:44:35;6.60;99.90
15217;DHT22;7711;46.634;14.318;2023-03-24T04:47:07;6.50;99.90
15217;DHT22;7711;46.634;14.318;2023-03-24T04:49:37;6.60;99.90
15217;DHT22;7711;46.634;14.318;2023-03-24T04:52:05;6.60;99.90
15217;DHT22;7711;46.634;14.318;2023-03-24T04:54:32;6.60;99.90
15217;DHT22;7711;46.634;14.318;2023-03-24T04:57:00;6.70;99.90
15217;DHT22;7711;46.634;14.318;2023-03-24T04:59:27;6.70;99.90
15217;DHT22;7711;46.634;14.318;2023-03-24T05:01:55;6.60;99.90
15217;DHT22;7711;46.634;14.318;2023-03-24T05:04:25;6.60;99.90
15217;DHT22;7711;46.634;14.318;2023-03-24T05:06:52;6.60;99.90
15217;DHT22;7711;46.634;14.318;2023-03-24T05:09:23;6.60;99.90
15217;DHT22;7711;46.634;14.318;2023-03-24T05:11:51;6.70;99.90
15217;DHT22;7711;46.634;14.318;2023-03-24T05:14:18;6.70;99.90
15217;DHT22;7711;46.634;14.318;2023-03-24T05:16:45;6.60;99.90
15217;DHT22;7711;46.634;14.318;2023-03-24T05:19:12;6.70;99.90
15217;DHT22;7711;46.634;14.318;2023-03-24T05:21:41;6.60;99.90
15217;DHT22;7711;46.634;14.318;2023-03-24T05:24:08;6.70;99.90
15217;DHT22;7711;46.634;14.318;2023-03-24T05:26:36;6.70;99.90
15217;DHT22;7711;46.634;14.318;2023-03-24T05:29:03;6.70;99.90
15217;DHT22;7711;46.634;14.318;2023-03-24T05:31:30;6.70;99.90
15217;DHT22;7711;46.634;14.318;2023-03-24T05:33:58;6.80;99.90
15217;DHT22;7711;46.634;14.318;2023-03-24T05:36:25;6.90;99.90
15217;DHT22;7711;46.634;14.318;2023-03-24T05:38:54;7.00;99.90
15217;DHT22;7711;46.634;14.318;2023-03-24T05:41:21;7.00;99.90
15217;DHT22;7711;46.634;14.318;2023-03-24T05:43:48;7.00;99.90
15217;DHT22;7711;46.634;14.318;2023-03-24T05:46:15;7.10;99.90
15217;DHT22;7711;46.634;14.318;2023-03-24T05:48:42;7.20;99.90
15217;DHT22;7711;46.634;14.318;2023-03-24T05:51:09;7.30;99.90
15217;DHT22;7711;46.634;14.318;2023-03-24T05:53:36;7.30;99.90
15217;DHT22;7711;46.634;14.318;2023-03-24T05:56:05;7.40;99.90
15217;DHT22;7711;46.634;14.318;2023-03-24T05:58:36;7.40;99.90
15217;DHT22;7711;46.634;14.318;2023-03-24T06:01:06;7.50;99.90
15217;DHT22;7711;46.634;14.318;2023-03-24T06:03:34;7.40;99.90
15217;DHT22;7711;46.634;14.318;2023-03-24T06:06:04;7.50;99.90
15217;DHT22;7711;46.634;14.318;2023-03-24T06:08:32;7.50;99.90
15217;DHT22;7711;46.634;14.318;2023-03-24T06:11:01;7.60;99.90
15217;DHT22;7711;46.634;14.318;2023-03-24T06:13:30;7.70;99.90
15217;DHT22;7711;46.634;14.318;2023-03-24T06:15:57;7.80;99.90
15217;DHT22;7711;46.634;14.318;2023-03-24T06:18:24;7.90;99.90
15217;DHT22;7711;46.634;14.318;2023-03-24T06:20:52;7.90;99.90
15217;DHT22;7711;46.634;14.318;2023-03-24T06:23:21;7.90;99.90
15217;DHT22;7711;46.634;14.318;2023-03-24T06:25:50;8.00;99.90
15217;DHT22;7711;46.634;14.318;2023-03-24T06:28:18;8.10;99.90
15217;DHT22;7711;46.634;14.318;2023-03-24T06:30:47;8.20;99.90
15217;DHT22;7711;46.634;14.318;2023-03-24T06:33:14;8.20;99.90
15217;DHT22;7711;46.634;14.318;2023-03-24T06:35:42;8.20;99.90
15217;DHT22;7711;46.634;14.318;2023-03-24T06:38:09;8.20;99.90
15217;DHT22;7711;46.634;14.318;2023-03-24T06:40:37;8.20;99.90
15217;DHT22;7711;46.634;14.318;2023-03-24T06:43:04;8.20;99.90
15217;DHT22;7711;46.634;14.318;2023-03-24T06:45:31;8.20;99.90
15217;DHT22;7711;46.634;14.318;2023-03-24T06:48:00;8.20;99.90
15217;DHT22;7711;46.634;14.318;2023-03-24T06:50:27;8.40;99.90
15217;DHT22;7711;46.634;14.318;2023-03-24T06:52:57;8.50;99.90
15217;DHT22;7711;46.634;14.318;2023-03-24T06:55:26;8.60;99.90
15217;DHT22;7711;46.634;14.318;2023-03-24T06:57:53;8.70;99.90
15217;DHT22;7711;46.634;14.318;2023-03-24T07:00:20;8.80;99.90
15217;DHT22;7711;46.634;14.318;2023-03-24T07:02:47;8.90;99.90
15217;DHT22;7711;46.634;14.318;2023-03-24T07:05:16;8.90;99.90
15217;DHT22;7711;46.634;14.318;2023-03-24T07:07:43;9.10;99.90
15217;DHT22;7711;46.634;14.318;2023-03-24T07:10:10;9.10;99.90
15217;DHT22;7711;46.634;14.318;2023-03-24T07:12:38;9.00;99.90
15217;DHT22;7711;46.634;14.318;2023-03-24T07:15:06;9.10;99.90
15217;DHT22;7711;46.634;14.318;2023-03-24T07:17:34;9.30;99.90
15217;DHT22;7711;46.634;14.318;2023-03-24T07:20:01;9.60;99.90
15217;DHT22;7711;46.634;14.318;2023-03-24T07:22:34;9.70;99.90
15217;DHT22;7711;46.634;14.318;2023-03-24T07:25:01;10.10;99.90
15217;DHT22;7711;46.634;14.318;2023-03-24T07:27:29;10.20;99.90
15217;DHT22;7711;46.634;14.318;2023-03-24T07:29:57;10.30;99.90
15217;DHT22;7711;46.634;14.318;2023-03-24T07:32:25;10.30;99.90
15217;DHT22;7711;46.634;14.318;2023-03-24T07:34:53;10.40;99.90
15217;DHT22;7711;46.634;14.318;2023-03-24T07:37:20;10.50;99.90
15217;DHT22;7711;46.634;14.318;2023-03-24T07:39:48;10.70;99.90
15217;DHT22;7711;46.634;14.318;2023-03-24T07:42:15;11.00;99.90
15217;DHT22;7711;46.634;14.318;2023-03-24T07:44:42;10.90;99.90
15217;DHT22;7711;46.634;14.318;2023-03-24T07:47:10;10.90;99.90
15217;DHT22;7711;46.634;14.318;2023-03-24T07:49:37;10.90;99.90
15217;DHT22;7711;46.634;14.318;2023-03-24T07:52:04;11.00;99.90
15217;DHT22;7711;46.634;14.318;2023-03-24T07:54:31;11.40;99.90
15217;DHT22;7711;46.634;14.318;2023-03-24T07:57:00;11.50;99.90
15217;DHT22;7711;46.634;14.318;2023-03-24T07:59:28;11.50;99.90
15217;DHT22;7711;46.634;14.318;2023-03-24T08:01:55;11.60;99.90
15217;DHT22;7711;46.634;14.318;2023-03-24T08:04:22;11.80;99.90
15217;DHT22;7711;46.634;14.318;2023-03-24T08:06:49;12.00;99.90
15217;DHT22;7711;46.634;14.318;2023-03-24T08:09:17;12.10;99.90
15217;DHT22;7711;46.634;14.318;2023-03-24T08:11:45;12.20;99.90
15217;DHT22;7711;46.634;14.318;2023-03-24T08:14:13;12.50;99.90
15217;DHT22;7711;46.634;14.318;2023-03-24T08:16:40;12.50;99.90
15217;DHT22;7711;46.634;14.318;2023-03-24T08:19:10;12.70;99.90
15217;DHT22;7711;46.634;14.318;2023-03-24T08:21:37;12.90;99.90
15217;DHT22;7711;46.634;14.318;2023-03-24T08:24:05;13.30;99.90
15217;DHT22;7711;46.634;14.318;2023-03-24T08:26:32;13.50;99.90
15217;DHT22;7711;46.634;14.318;2023-03-24T08:29:00;13.30;99.90
15217;DHT22;7711;46.634;14.318;2023-03-24T08:31:32;13.20;99.90
15217;DHT22;7711;46.634;14.318;2023-03-24T08:34:00;13.30;99.90
15217;DHT22;7711;46.634;14.318;2023-03-24T08:36:27;13.60;99.90
15217;DHT22;7711;46.634;14.318;2023-03-24T08:38:54;13.60;99.90
15217;DHT22;7711;46.634;14.318;2023-03-24T08:41:22;13.70;99.90
15217;DHT22;7711;46.634;14.318;2023-03-24T08:43:59;13.60;99.90
15217;DHT22;7711;46.634;14.318;2023-03-24T08:46:28;14.00;99.90
15217;DHT22;7711;46.634;14.318;2023-03-24T08:48:56;14.10;99.90
15217;DHT22;7711;46.634;14.318;2023-03-24T08:51:24;14.10;99.90
15217;DHT22;7711;46.634;14.318;2023-03-24T08:53:52;14.30;99.90
15217;DHT22;7711;46.634;14.318;2023-03-24T08:56:20;14.40;99.90
15217;DHT22;7711;46.634;14.318;2023-03-24T08:58:48;14.50;99.90
15217;DHT22;7711;46.634;14.318;2023-03-24T09:01:16;14.50;99.90
15217;DHT22;7711;46.634;14.318;2023-03-24T09:03:43;14.90;99.90
15217;DHT22;7711;46.634;14.318;2023-03-24T09:06:13;15.20;99.90
15217;DHT22;7711;46.634;14.318;2023-03-24T09:08:40;15.20;99.90
15217;DHT22;7711;46.634;14.318;2023-03-24T09:11:14;15.20;99.90
15217;DHT22;7711;46.634;14.318;2023-03-24T09:13:42;15.20;99.90
15217;DHT22;7711;46.634;14.318;2023-03-24T09:16:09;15.50;99.90
15217;DHT22;7711;46.634;14.318;2023-03-24T09:18:36;15.80;99.90
15217;DHT22;7711;46.634;14.318;2023-03-24T09:21:03;16.00;99.90
15217;DHT22;7711;46.634;14.318;2023-03-24T09:23:32;15.60;99.90
15217;DHT22;7711;46.634;14.318;2023-03-24T09:26:00;16.10;99.90
15217;DHT22;7711;46.634;14.318;2023-03-24T09:28:28;16.50;99.90
15217;DHT22;7711;46.634;14.318;2023-03-24T09:30:59;16.70;99.90
15217;DHT22;7711;46.634;14.318;2023-03-24T09:33:27;17.00;99.90
15217;DHT22;7711;46.634;14.318;2023-03-24T09:35:55;17.20;99.90
15217;DHT22;7711;46.634;14.318;2023-03-24T09:38:23;17.50;99.90
15217;DHT22;7711;46.634;14.318;2023-03-24T09:40:54;17.40;99.90
15217;DHT22;7711;46.634;14.318;2023-03-24T09:43:26;17.10;99.90
15217;DHT22;7711;46.634;14.318;2023-03-24T09:45:58;17.40;99.90
15217;DHT22;7711;46.634;14.318;2023-03-24T09:48:32;18.00;99.90
15217;DHT22;7711;46.634;14.318;2023-03-24T09:51:03;18.00;99.90
15217;DHT22;7711;46.634;14.318;2023-03-24T09:53:38;17.80;99.90
15217;DHT22;7711;46.634;14.318;2023-03-24T09:56:13;17.80;99.90
15217;DHT22;7711;46.634;14.318;2023-03-24T09:58:42;17.80;99.90
15217;DHT22;7711;46.634;14.318;2023-03-24T10:01:12;18.30;99.90
15217;DHT22;7711;46.634;14.318;2023-03-24T10:03:40;18.50;99.90
15217;DHT22;7711;46.634;14.318;2023-03-24T10:06:10;18.60;99.90
15217;DHT22;7711;46.634;14.318;2023-03-24T10:08:42;17.90;99.90
15217;DHT22;7711;46.634;14.318;2023-03-24T10:11:19;17.90;99.90
15217;DHT22;7711;46.634;14.318;2023-03-24T10:14:02;18.10;99.90
15217;DHT22;7711;46.634;14.318;2023-03-24T10:16:35;18.00;99.90
15217;DHT22;7711;46.634;14.318;2023-03-24T10:19:15;18.10;99.90
15217;DHT22;7711;46.634;14.318;2023-03-24T10:21:52;18.30;99.90
15217;DHT22;7711;46.634;14.318;2023-03-24T10:24:26;18.30;99.90
15217;DHT22;7711;46.634;14.318;2023-03-24T10:27:01;18.40;99.90
15217;DHT22;7711;46.634;14.318;2023-03-24T10:29:32;18.50;99.90
15217;DHT22;7711;46.634;14.318;2023-03-24T10:32:02;18.60;99.90
15217;DHT22;7711;46.634;14.318;2023-03-24T10:34:31;18.70;99.90
15217;DHT22;7711;46.634;14.318;2023-03-24T10:37:00;18.70;99.90
15217;DHT22;7711;46.634;14.318;2023-03-24T10:39:28;19.00;99.90
15217;DHT22;7711;46.634;14.318;2023-03-24T10:41:58;18.80;99.90
15217;DHT22;7711;46.634;14.318;2023-03-24T10:44:27;19.20;99.90
15217;DHT22;7711;46.634;14.318;2023-03-24T10:46:56;18.90;99.90
15217;DHT22;7711;46.634;14.318;2023-03-24T10:49:24;18.80;99.90
15217;DHT22;7711;46.634;14.318;2023-03-24T10:51:52;18.80;99.90
15217;DHT22;7711;46.634;14.318;2023-03-24T10:54:22;18.80;99.90
15217;DHT22;7711;46.634;14.318;2023-03-24T10:56:51;18.80;99.90
15217;DHT22;7711;46.634;14.318;2023-03-24T10:59:30;19.30;99.40
15217;DHT22;7711;46.634;14.318;2023-03-24T11:01:59;18.90;99.30
15217;DHT22;7711;46.634;14.318;2023-03-24T11:04:29;18.70;99.00
15217;DHT22;7711;46.634;14.318;2023-03-24T11:07:04;18.90;98.80
15217;DHT22;7711;46.634;14.318;2023-03-24T11:09:38;18.90;98.20
15217;DHT22;7711;46.634;14.318;2023-03-24T11:12:23;19.10;98.20
15217;DHT22;7711;46.634;14.318;2023-03-24T11:14:52;19.10;98.10
15217;DHT22;7711;46.634;14.318;2023-03-24T11:17:26;19.50;98.80
15217;DHT22;7711;46.634;14.318;2023-03-24T11:19:55;19.00;95.70
15217;DHT22;7711;46.634;14.318;2023-03-24T11:22:22;19.10;96.50
15217;DHT22;7711;46.634;14.318;2023-03-24T11:24:54;19.20;96.30
15217;DHT22;7711;46.634;14.318;2023-03-24T11:27:22;18.90;95.50
15217;DHT22;7711;46.634;14.318;2023-03-24T11:29:52;18.70;96.70
15217;DHT22;7711;46.634;14.318;2023-03-24T11:32:24;18.80;95.90
15217;DHT22;7711;46.634;14.318;2023-03-24T11:34:59;18.90;96.50
15217;DHT22;7711;46.634;14.318;2023-03-24T11:37:30;18.80;95.60
15217;DHT22;7711;46.634;14.318;2023-03-24T11:40:18;18.90;95.20
15217;DHT22;7711;46.634;14.318;2023-03-24T11:42:48;18.80;95.50
15217;DHT22;7711;46.634;14.318;2023-03-24T11:45:25;18.90;94.60
15217;DHT22;7711;46.634;14.318;2023-03-24T11:47:56;18.80;94.70
15217;DHT22;7711;46.634;14.318;2023-03-24T11:50:27;18.90;94.80
15217;DHT22;7711;46.634;14.318;2023-03-24T11:53:00;18.80;93.90
15217;DHT22;7711;46.634;14.318;2023-03-24T11:55:35;18.80;94.30
15217;DHT22;7711;46.634;14.318;2023-03-24T11:58:11;18.90;93.00
15217;DHT22;7711;46.634;14.318;2023-03-24T12:00:47;19.00;94.00
15217;DHT22;7711;46.634;14.318;2023-03-24T12:03:42;19.00;93.20
15217;DHT22;7711;46.634;14.318;2023-03-24T12:06:27;18.90;93.00
15217;DHT22;7711;46.634;14.318;2023-03-24T12:09:06;18.80;93.00
15217;DHT22;7711;46.634;14.318;2023-03-24T12:11:48;18.70;92.80
15217;DHT22;7711;46.634;14.318;2023-03-24T12:14:24;18.90;93.60
15217;DHT22;7711;46.634;14.318;2023-03-24T12:17:00;19.10;92.00
15217;DHT22;7711;46.634;14.318;2023-03-24T12:19:52;19.20;92.70
15217;DHT22;7711;46.634;14.318;2023-03-24T12:22:35;18.90;91.50
15217;DHT22;7711;46.634;14.318;2023-03-24T12:25:41;18.80;92.20
15217;DHT22;7711;46.634;14.318;2023-03-24T12:28:26;18.80;92.30
15217;DHT22;7711;46.634;14.318;2023-03-24T12:31:11;18.70;91.70
15217;DHT22;7711;46.634;14.318;2023-03-24T12:33:49;18.70;91.30
15217;DHT22;7711;46.634;14.318;2023-03-24T12:36:36;18.60;91.40
15217;DHT22;7711;46.634;14.318;2023-03-24T12:39:08;18.80;92.10
15217;DHT22;7711;46.634;14.318;2023-03-24T12:41:52;18.60;91.00
15217;DHT22;7711;46.634;14.318;2023-03-24T12:44:51;18.60;91.30
15217;DHT22;7711;46.634;14.318;2023-03-24T12:47:33;18.50;90.60
15217;DHT22;7711;46.634;14.318;2023-03-24T12:50:20;18.60;91.00
15217;DHT22;7711;46.634;14.318;2023-03-24T12:53:01;18.90;90.80
15217;DHT22;7711;46.634;14.318;2023-03-24T12:55:35;19.00;90.50
15217;DHT22;7711;46.634;14.318;2023-03-24T12:58:11;18.90;90.10
15217;DHT22;7711;46.634;14.318;2023-03-24T13:00:44;18.70;89.90
15217;DHT22;7711;46.634;14.318;2023-03-24T13:03:17;18.80;89.90
15217;DHT22;7711;46.634;14.318;2023-03-24T13:05:49;18.80;89.80
15217;DHT22;7711;46.634;14.318;2023-03-24T13:08:21;18.80;89.90
15217;DHT22;7711;46.634;14.318;2023-03-24T13:10:55;18.90;90.00
15217;DHT22;7711;46.634;14.318;2023-03-24T13:13:28;18.90;89.70
15217;DHT22;7711;46.634;14.318;2023-03-24T13:15:59;18.60;88.50
15217;DHT22;7711;46.634;14.318;2023-03-24T13:18:30;18.50;89.00
15217;DHT22;7711;46.634;14.318;2023-03-24T13:21:03;18.40;90.70
15217;DHT22;7711;46.634;14.318;2023-03-24T13:23:43;18.30;89.70
15217;DHT22;7711;46.634;14.318;2023-03-24T13:26:19;18.40;90.10
15217;DHT22;7711;46.634;14.318;2023-03-24T13:28:56;18.40;90.40
15217;DHT22;7711;46.634;14.318;2023-03-24T13:31:28;18.60;90.60
15217;DHT22;7711;46.634;14.318;2023-03-24T13:33:59;18.80;89.40
15217;DHT22;7711;46.634;14.318;2023-03-24T13:36:35;18.80;89.80
15217;DHT22;7711;46.634;14.318;2023-03-24T13:39:11;18.80;89.00
15217;DHT22;7711;46.634;14.318;2023-03-24T13:41:40;19.20;87.20
15217;DHT22;7711;46.634;14.318;2023-03-24T13:44:17;19.00;86.20
15217;DHT22;7711;46.634;14.318;2023-03-24T13:46:59;18.90;86.40
15217;DHT22;7711;46.634;14.318;2023-03-24T13:49:29;18.70;86.70
15217;DHT22;7711;46.634;14.318;2023-03-24T13:52:01;18.70;88.20
15217;DHT22;7711;46.634;14.318;2023-03-24T13:54:29;18.60;87.60
15217;DHT22;7711;46.634;14.318;2023-03-24T13:57:02;18.40;90.00
15217;DHT22;7711;46.634;14.318;2023-03-24T13:59:31;18.50;88.00
15217;DHT22;7711;46.634;14.318;2023-03-24T14:02:23;18.50;88.00
15217;DHT22;7711;46.634;14.318;2023-03-24T14:05:08;18.50;86.00
15217;DHT22;7711;46.634;14.318;2023-03-24T14:07:46;18.50;87.80
15217;DHT22;7711;46.634;14.318;2023-03-24T14:10:37;18.50;86.60
15217;DHT22;7711;46.634;14.318;2023-03-24T14:16:26;20.30;84.30
15217;DHT22;7711;46.634;14.318;2023-03-24T14:19:21;20.60;80.00
15217;DHT22;7711;46.634;14.318;2023-03-24T14:21:57;20.90;77.70
15217;DHT22;7711;46.634;14.318;2023-03-24T14:24:28;21.60;75.40
15217;DHT22;7711;46.634;14.318;2023-03-24T14:26:57;21.10;65.90
15217;DHT22;7711;46.634;14.318;2023-03-24T14:29:36;21.30;69.00
15217;DHT22;7711;46.634;14.318;2023-03-24T14:32:04;21.20;70.30
15217;DHT22;7711;46.634;14.318;2023-03-24T14:34:33;20.90;68.40
15217;DHT22;7711;46.634;14.318;2023-03-24T14:37:03;21.30;68.70
15217;DHT22;7711;46.634;14.318;2023-03-24T14:39:39;20.90;67.70
15217;DHT22;7711;46.634;14.318;2023-03-24T14:48:31;20.70;66.10
15217;DHT22;7711;46.634;14.318;2023-03-24T14:51:05;20.50;67.90
15217;DHT22;7711;46.634;14.318;2023-03-24T14:53:34;20.50;67.70
15217;DHT22;7711;46.634;14.318;2023-03-24T14:56:06;20.60;66.70
15217;DHT22;7711;46.634;14.318;2023-03-24T14:58:39;19.50;66.30
15217;DHT22;7711;46.634;14.318;2023-03-24T15:01:09;19.00;70.00
15217;DHT22;7711;46.634;14.318;2023-03-24T15:03:41;18.90;71.10
15217;DHT22;7711;46.634;14.318;2023-03-24T15:06:14;19.40;71.00
15217;DHT22;7711;46.634;14.318;2023-03-24T15:08:48;20.20;68.60
15217;DHT22;7711;46.634;14.318;2023-03-24T15:11:20;20.20;66.00
15217;DHT22;7711;46.634;14.318;2023-03-24T15:13:51;20.20;66.50
15217;DHT22;7711;46.634;14.318;2023-03-24T15:16:21;20.20;67.80
15217;DHT22;7711;46.634;14.318;2023-03-24T15:18:51;20.40;68.10
15217;DHT22;7711;46.634;14.318;2023-03-24T15:21:24;20.70;65.60
15217;DHT22;7711;46.634;14.318;2023-03-24T15:23:52;20.90;63.30
15217;DHT22;7711;46.634;14.318;2023-03-24T15:26:22;20.60;62.60
15217;DHT22;7711;46.634;14.318;2023-03-24T15:28:54;20.50;63.10
15217;DHT22;7711;46.634;14.318;2023-03-24T15:31:22;21.00;64.30
15217;DHT22;7711;46.634;14.318;2023-03-24T15:33:50;20.70;61.80
15217;DHT22;7711;46.634;14.318;2023-03-24T15:36:21;20.40;62.70
15217;DHT22;7711;46.634;14.318;2023-03-24T15:38:50;20.80;63.40
15217;DHT22;7711;46.634;14.318;2023-03-24T15:41:21;20.30;61.00
15217;DHT22;7711;46.634;14.318;2023-03-24T15:43:51;20.40;63.40
15217;DHT22;7711;46.634;14.318;2023-03-24T15:46:23;20.50;61.20
15217;DHT22;7711;46.634;14.318;2023-03-24T15:48:52;20.20;61.50
15217;DHT22;7711;46.634;14.318;2023-03-24T15:51:20;20.20;60.60
15217;DHT22;7711;46.634;14.318;2023-03-24T15:54:19;20.00;62.00
15217;DHT22;7711;46.634;14.318;2023-03-24T15:56:59;19.60;60.90
15217;DHT22;7711;46.634;14.318;2023-03-24T15:59:32;19.90;62.20
15217;DHT22;7711;46.634;14.318;2023-03-24T16:02:01;19.80;60.80
15217;DHT22;7711;46.634;14.318;2023-03-24T16:04:29;19.70;61.60
15217;DHT22;7711;46.634;14.318;2023-03-24T16:06:56;20.00;63.30
15217;DHT22;7711;46.634;14.318;2023-03-24T16:09:34;19.90;62.50
15217;DHT22;7711;46.634;14.318;2023-03-24T16:12:07;19.60;62.00
15217;DHT22;7711;46.634;14.318;2023-03-24T16:14:34;19.40;62.60
15217;DHT22;7711;46.634;14.318;2023-03-24T16:17:03;19.40;61.80
15217;DHT22;7711;46.634;14.318;2023-03-24T16:19:30;19.50;62.50
15217;DHT22;7711;46.634;14.318;2023-03-24T16:21:57;19.10;62.60
15217;DHT22;7711;46.634;14.318;2023-03-24T16:24:26;19.10;63.00
15217;DHT22;7711;46.634;14.318;2023-03-24T16:26:53;18.50;63.60
15217;DHT22;7711;46.634;14.318;2023-03-24T16:29:21;18.50;65.60